createdAt,value
2019-02-22T00:01:43.953Z,14.93
2019-02-22T00:04:13.540Z,16.27
2019-02-22T00:06:43.041Z,13.97
2019-02-22T00:09:12.536Z,16.73
2019-02-22T00:11:42.064Z,18.57
2019-02-22T00:14:11.973Z,19.63
2019-02-22T00:16:41.477Z,18.93
2019-02-22T00:19:10.984Z,15.87
2019-02-22T00:21:40.490Z,19.50
2019-02-22T00:24:10.053Z,24.47
2019-02-22T00:26:39.562Z,21.40
2019-02-22T00:29:09.020Z,19.53
2019-02-22T00:31:38.503Z,22.07
2019-02-22T00:34:08.030Z,22.60
2019-02-22T00:36:37.560Z,19.80
2019-02-22T00:39:07.317Z,19.70
2019-02-22T00:41:36.829Z,22.77
2019-02-22T00:44:06.362Z,18.87
2019-02-22T00:46:35.871Z,18.30
2019-02-22T00:49:05.366Z,20.77
2019-02-22T00:51:34.814Z,18.40
2019-02-22T00:54:04.290Z,19.17
2019-02-22T00:56:33.790Z,15.27
2019-02-22T00:59:03.296Z,20.67
2019-02-22T01:01:32.794Z,38.63
2019-02-22T01:04:02.314Z,32.83
2019-02-22T01:06:31.788Z,24.57
2019-02-22T01:09:01.303Z,22.23
2019-02-22T01:11:30.807Z,20.97
2019-02-22T01:14:00.302Z,21.00
2019-02-22T01:16:29.807Z,20.80
2019-02-22T01:18:59.305Z,21.27
2019-02-22T01:21:28.774Z,16.70
2019-02-22T01:23:58.315Z,17.37
2019-02-22T01:26:27.808Z,17.27
2019-02-22T01:28:57.249Z,24.37
2019-02-22T01:31:26.750Z,30.83
2019-02-22T01:33:56.233Z,29.77
2019-02-22T01:36:25.721Z,34.33
2019-02-22T01:38:55.227Z,28.87
2019-02-22T01:41:24.722Z,30.60
2019-02-22T01:43:54.200Z,26.90
2019-02-22T01:46:23.718Z,36.17
2019-02-22T01:48:53.600Z,33.13
2019-02-22T01:51:23.104Z,28.60
2019-02-22T01:53:54.061Z,29.67
2019-02-22T01:56:23.722Z,26.50
2019-02-22T01:58:53.208Z,26.93
2019-02-22T02:01:22.747Z,29.23
2019-02-22T02:03:52.333Z,35.27
2019-02-22T02:06:21.861Z,31.10
2019-02-22T02:08:51.401Z,35.80
2019-02-22T02:11:20.949Z,31.53
2019-02-22T02:13:58.681Z,36.17
2019-02-22T02:16:32.539Z,33.90
2019-02-22T02:19:10.146Z,30.70
2019-02-22T02:21:46.010Z,37.30
2019-02-22T02:24:19.365Z,33.10
2019-02-22T02:26:49.826Z,29.70
2019-02-22T02:29:22.204Z,32.90
2019-02-22T02:31:51.726Z,24.93
2019-02-22T02:34:21.800Z,25.93
2019-02-22T02:36:56.031Z,26.30
2019-02-22T02:39:30.637Z,30.97
2019-02-22T02:42:03.534Z,31.23
2019-02-22T02:44:34.763Z,38.47
2019-02-22T02:47:16.162Z,37.10
2019-02-22T02:49:47.094Z,36.63
2019-02-22T02:52:17.315Z,35.63
2019-02-22T02:54:46.810Z,32.17
2019-02-22T02:57:17.455Z,32.63
2019-02-22T02:59:56.935Z,36.00
2019-02-22T03:02:30.588Z,31.63
2019-02-22T03:05:00.417Z,35.03
2019-02-22T03:07:45.755Z,34.37
2019-02-22T03:10:19.567Z,37.10
2019-02-22T03:12:52.652Z,35.93
2019-02-22T03:15:24.160Z,36.57
2019-02-22T03:17:58.727Z,39.43
2019-02-22T03:20:36.955Z,35.20
2019-02-22T03:23:14.559Z,36.93
2019-02-22T03:25:50.234Z,33.43
2019-02-22T03:28:28.584Z,34.40
2019-02-22T03:31:06.313Z,37.90
2019-02-22T03:33:43.553Z,33.73
2019-02-22T03:36:19.480Z,33.13
2019-02-22T03:38:56.964Z,29.80
2019-02-22T03:41:32.745Z,33.00
2019-02-22T03:43:57.793Z,36.17
2019-02-22T03:46:35.448Z,32.33
2019-02-22T03:49:15.489Z,33.93
2019-02-22T03:51:45.062Z,30.57
2019-02-22T03:54:14.567Z,33.73
2019-02-22T03:56:56.085Z,30.83
2019-02-22T03:59:32.015Z,39.10
2019-02-22T04:02:01.518Z,42.23
2019-02-22T04:04:31.017Z,35.50
2019-02-22T04:07:00.594Z,34.03
2019-02-22T04:09:32.846Z,34.07
2019-02-22T04:12:09.614Z,35.73
2019-02-22T04:14:42.338Z,30.67
2019-02-22T04:17:14.954Z,30.47
2019-02-22T04:19:44.488Z,31.97
2019-02-22T04:22:13.970Z,31.87
2019-02-22T04:24:43.473Z,33.63
2019-02-22T04:27:13.667Z,29.07
2019-02-22T04:29:43.681Z,29.90
2019-02-22T04:32:37.000Z,33.70
2019-02-22T04:35:08.885Z,29.87
2019-02-22T04:37:45.016Z,30.23
2019-02-22T04:40:15.173Z,30.03
2019-02-22T04:42:45.589Z,28.20
2019-02-22T04:45:15.989Z,30.00
2019-02-22T04:47:48.580Z,32.40
2019-02-22T04:50:21.298Z,29.00
2019-02-22T04:52:52.946Z,31.87
2019-02-22T04:55:29.453Z,32.10
2019-02-22T04:57:59.871Z,32.17
2019-02-22T05:00:30.237Z,34.83
2019-02-22T05:02:59.788Z,32.23
2019-02-22T05:05:29.351Z,30.20
2019-02-22T05:07:58.853Z,33.67
2019-02-22T05:10:28.409Z,33.23
2019-02-22T05:12:59.153Z,30.67
2019-02-22T05:15:28.726Z,30.27
2019-02-22T05:17:58.369Z,33.23
2019-02-22T05:20:27.959Z,31.60
2019-02-22T05:23:03.779Z,30.10
2019-02-22T05:25:30.794Z,31.03
2019-02-22T05:28:00.290Z,33.67
2019-02-22T05:30:29.809Z,28.20
2019-02-22T05:32:59.265Z,28.37
2019-02-22T05:35:28.759Z,30.50
2019-02-22T05:37:58.313Z,28.37
2019-02-22T05:40:27.822Z,30.47
2019-02-22T05:42:57.295Z,34.97
2019-02-22T05:45:26.805Z,29.03
2019-02-22T05:47:56.271Z,28.57
2019-02-22T05:50:25.724Z,29.27
2019-02-22T05:52:55.221Z,26.83
2019-02-22T05:55:24.699Z,33.67
2019-02-22T05:57:54.186Z,25.50
2019-02-22T06:00:23.693Z,30.43
2019-02-22T06:02:53.176Z,26.17
2019-02-22T06:05:22.648Z,29.63
2019-02-22T06:07:52.172Z,32.50
2019-02-22T06:10:21.607Z,30.70
2019-02-22T06:12:51.105Z,34.37
2019-02-22T06:15:20.624Z,33.60
2019-02-22T06:17:50.122Z,33.43
2019-02-22T06:20:19.556Z,39.47
2019-02-22T06:22:49.063Z,34.03
2019-02-22T06:25:18.557Z,30.63
2019-02-22T06:27:48.112Z,39.80
2019-02-22T06:30:18.058Z,36.93
2019-02-22T06:32:47.529Z,33.07
2019-02-22T06:35:17.005Z,33.70
2019-02-22T06:37:46.498Z,31.77
2019-02-22T06:40:16.034Z,31.17
2019-02-22T06:42:46.282Z,35.40
2019-02-22T06:45:15.901Z,32.67
2019-02-22T06:47:45.453Z,32.67
2019-02-22T06:50:14.989Z,35.53
2019-02-22T06:52:44.517Z,36.53
2019-02-22T06:55:14.025Z,32.23
2019-02-22T06:57:43.567Z,39.60
2019-02-22T07:00:13.137Z,36.93
2019-02-22T07:02:42.639Z,30.30
2019-02-22T07:05:12.249Z,37.30
2019-02-22T07:07:41.790Z,34.80
2019-02-22T07:10:11.507Z,40.37
2019-02-22T07:12:56.774Z,39.27
2019-02-22T07:15:21.869Z,49.80
2019-02-22T07:17:51.362Z,45.07
2019-02-22T07:20:20.857Z,51.37
2019-02-22T07:22:50.351Z,44.97
2019-02-22T07:25:19.858Z,46.93
2019-02-22T07:27:49.370Z,47.93
2019-02-22T07:30:18.930Z,45.63
2019-02-22T07:32:48.423Z,48.43
2019-02-22T07:35:17.950Z,53.60
2019-02-22T07:37:47.504Z,58.77
2019-02-22T07:40:19.798Z,57.13
2019-02-22T07:42:48.288Z,62.73
2019-02-22T07:45:17.806Z,68.97
2019-02-22T07:47:47.305Z,66.60
2019-02-22T07:50:16.772Z,64.87
2019-02-22T07:52:46.285Z,64.90
2019-02-22T07:55:15.744Z,71.30
2019-02-22T07:57:45.236Z,60.27
2019-02-22T08:00:15.138Z,49.87
2019-02-22T08:02:44.621Z,51.10
2019-02-22T08:05:14.251Z,39.53
2019-02-22T08:07:43.753Z,44.00
2019-02-22T08:10:13.274Z,34.17
2019-02-22T08:12:42.796Z,31.53
2019-02-22T08:15:12.298Z,28.93
2019-02-22T08:17:41.829Z,31.50
2019-02-22T08:20:11.367Z,26.20
2019-02-22T08:22:40.865Z,24.30
2019-02-22T08:25:10.363Z,25.00
2019-02-22T08:27:41.726Z,25.70
2019-02-22T08:30:11.275Z,26.37
2019-02-22T08:32:40.843Z,32.23
2019-02-22T08:35:10.334Z,29.37
2019-02-22T08:37:39.817Z,31.57
2019-02-22T08:40:10.046Z,28.13
2019-02-22T08:42:39.611Z,30.07
2019-02-22T08:45:09.750Z,22.97
2019-02-22T08:47:39.464Z,21.57
2019-02-22T08:50:09.682Z,20.90
2019-02-22T08:52:39.113Z,19.60
2019-02-22T08:55:08.562Z,21.43
2019-02-22T08:57:38.012Z,22.60
2019-02-22T09:00:08.948Z,17.27
2019-02-22T09:02:38.551Z,22.13
2019-02-22T09:05:08.492Z,16.23
2019-02-22T09:07:37.959Z,17.07
2019-02-22T09:10:07.924Z,23.17
2019-02-22T09:12:37.464Z,21.87
2019-02-22T09:15:07.336Z,21.00
2019-02-22T09:17:36.849Z,19.23
2019-02-22T09:20:06.880Z,25.47
2019-02-22T09:22:36.369Z,19.53
2019-02-22T09:25:06.276Z,27.53
2019-02-22T09:27:35.843Z,21.57
2019-02-22T09:30:05.725Z,20.63
2019-02-22T09:32:35.227Z,19.90
2019-02-22T09:35:05.111Z,19.97
2019-02-22T09:37:34.601Z,17.57
2019-02-22T09:40:04.179Z,21.00
2019-02-22T09:42:33.690Z,19.50
2019-02-22T09:45:03.221Z,24.50
2019-02-22T09:47:32.698Z,19.80
2019-02-22T09:50:02.212Z,21.30
2019-02-22T09:52:31.723Z,17.33
2019-02-22T09:55:01.317Z,13.43
2019-02-22T09:57:30.796Z,11.07
2019-02-22T10:00:00.400Z,13.07
2019-02-22T10:02:29.911Z,12.63
2019-02-22T10:04:59.419Z,15.77
2019-02-22T10:07:28.926Z,15.70
2019-02-22T10:09:58.445Z,16.30
2019-02-22T10:12:27.962Z,14.30
2019-02-22T10:14:57.448Z,13.97
2019-02-22T10:17:26.962Z,15.53
2019-02-22T10:19:56.451Z,15.43
2019-02-22T10:22:25.960Z,14.77
2019-02-22T10:24:55.469Z,17.33
2019-02-22T10:27:24.969Z,16.40
2019-02-22T10:29:54.468Z,18.73
2019-02-22T10:32:23.950Z,17.87
2019-02-22T10:34:53.455Z,18.60
2019-02-22T10:37:22.962Z,15.80
2019-02-22T10:39:52.464Z,15.30
2019-02-22T10:42:21.996Z,15.90
2019-02-22T10:44:51.455Z,14.70
2019-02-22T10:47:20.949Z,11.47
2019-02-22T10:49:50.471Z,10.47
2019-02-22T10:52:20.033Z,12.20
2019-02-22T10:54:49.505Z,13.17
2019-02-22T10:57:18.994Z,15.80
2019-02-22T10:59:48.592Z,14.20
2019-02-22T11:02:18.065Z,14.23
2019-02-22T11:04:47.600Z,17.80
2019-02-22T11:07:17.110Z,15.73
2019-02-22T11:09:46.776Z,12.40
2019-02-22T11:12:16.273Z,12.80
2019-02-22T11:14:45.752Z,9.80
2019-02-22T11:17:15.276Z,7.67
2019-02-22T11:19:44.803Z,7.97
2019-02-22T11:22:14.349Z,6.93
2019-02-22T11:24:43.820Z,9.07
2019-02-22T11:27:13.301Z,10.07
2019-02-22T11:29:42.754Z,8.17
2019-02-22T11:32:12.248Z,9.40
2019-02-22T11:34:42.487Z,15.03
2019-02-22T11:37:15.213Z,12.73
2019-02-22T11:39:44.739Z,14.00
2019-02-22T11:42:14.279Z,15.27
2019-02-22T11:44:43.749Z,16.50
2019-02-22T11:47:13.235Z,13.07
2019-02-22T11:49:42.743Z,22.60
2019-02-22T11:52:12.316Z,15.93
2019-02-22T11:54:41.819Z,13.20
2019-02-22T11:57:11.784Z,11.73
2019-02-22T11:59:41.269Z,11.03
2019-02-22T12:02:10.763Z,11.40
2019-02-22T12:04:40.262Z,10.87
2019-02-22T12:07:09.778Z,10.10
2019-02-22T12:09:39.265Z,9.93
2019-02-22T12:12:08.754Z,11.73
2019-02-22T12:14:38.230Z,8.00
2019-02-22T12:17:07.711Z,8.33
2019-02-22T12:19:37.202Z,7.57
2019-02-22T12:22:06.741Z,10.40
2019-02-22T12:24:36.267Z,6.30
2019-02-22T12:27:05.750Z,5.70
2019-02-22T12:29:35.236Z,5.33
2019-02-22T12:32:04.699Z,8.03
2019-02-22T12:34:34.219Z,6.73
2019-02-22T12:37:03.689Z,6.30
2019-02-22T12:39:33.224Z,8.73
2019-02-22T12:42:02.737Z,7.27
2019-02-22T12:44:32.246Z,7.43
2019-02-22T12:47:01.748Z,6.93
2019-02-22T12:49:31.256Z,6.90
2019-02-22T12:52:00.751Z,8.40
2019-02-22T12:54:30.205Z,9.33
2019-02-22T12:56:59.688Z,9.17
2019-02-22T12:59:29.139Z,6.33
2019-02-22T13:01:58.644Z,5.30
2019-02-22T13:04:28.177Z,4.87
2019-02-22T13:06:57.640Z,5.10
2019-02-22T13:09:36.191Z,5.07
2019-02-22T13:11:58.304Z,5.57
2019-02-22T13:14:27.828Z,8.50
2019-02-22T13:16:57.330Z,8.67
2019-02-22T13:19:26.863Z,10.27
2019-02-22T13:21:56.368Z,9.00
2019-02-22T13:24:25.876Z,12.90
2019-02-22T13:26:55.695Z,14.37
2019-02-22T13:29:25.220Z,13.93
2019-02-22T13:31:54.709Z,14.73
2019-02-22T13:34:24.230Z,15.27
2019-02-22T13:36:53.732Z,17.57
2019-02-22T13:39:23.217Z,20.07
2019-02-22T13:41:52.731Z,19.07
2019-02-22T13:44:23.398Z,21.47
2019-02-22T13:46:53.044Z,24.57
2019-02-22T13:49:22.547Z,18.57
2019-02-22T13:51:52.071Z,20.73
2019-02-22T13:54:21.533Z,20.60
2019-02-22T13:56:51.071Z,21.33
2019-02-22T13:59:20.599Z,19.87
2019-02-22T14:01:50.111Z,17.37
2019-02-22T14:04:19.622Z,18.37
2019-02-22T14:06:49.095Z,17.20
2019-02-22T14:09:18.566Z,19.10
2019-02-22T14:11:48.089Z,20.57
2019-02-22T14:14:17.546Z,20.50
2019-02-22T14:16:47.088Z,21.40
2019-02-22T14:19:16.586Z,22.30
2019-02-22T14:21:46.070Z,27.07
2019-02-22T14:24:15.578Z,24.80
2019-02-22T14:26:45.124Z,23.30
2019-02-22T14:29:14.679Z,25.23
2019-02-22T14:31:44.131Z,26.73
2019-02-22T14:34:13.696Z,15.83
2019-02-22T14:36:43.175Z,8.50
2019-02-22T14:39:12.827Z,6.90
2019-02-22T14:41:42.230Z,5.07
2019-02-22T14:44:11.721Z,5.27
2019-02-22T14:46:41.259Z,5.03
2019-02-22T14:49:10.802Z,5.67
2019-02-22T14:51:40.295Z,4.80
2019-02-22T14:54:09.759Z,6.03
2019-02-22T14:56:39.224Z,6.30
2019-02-22T14:59:08.716Z,11.37
2019-02-22T15:01:38.249Z,18.30
2019-02-22T15:04:07.777Z,16.43
2019-02-22T15:06:37.297Z,14.17
2019-02-22T15:09:08.419Z,13.77
2019-02-22T15:11:37.893Z,14.93
2019-02-22T15:14:07.464Z,14.50
2019-02-22T15:16:52.745Z,12.23
2019-02-22T15:19:22.380Z,11.57
2019-02-22T15:21:51.932Z,13.33
2019-02-22T15:24:21.455Z,12.40
2019-02-22T15:26:50.954Z,13.73
2019-02-22T15:29:20.499Z,13.03
2019-02-22T15:31:50.011Z,14.93
2019-02-22T15:34:19.514Z,15.23
2019-02-22T15:36:49.001Z,15.67
2019-02-22T15:39:18.470Z,15.00
2019-02-22T15:41:47.966Z,18.13
2019-02-22T15:44:17.593Z,15.47
2019-02-22T15:46:47.092Z,15.20
2019-02-22T15:49:16.580Z,13.03
2019-02-22T15:51:46.079Z,15.37
2019-02-22T15:54:15.569Z,14.17
2019-02-22T15:56:45.081Z,17.63
2019-02-22T15:59:14.598Z,15.43
2019-02-22T16:01:54.514Z,17.27
2019-02-22T16:04:40.373Z,17.57
2019-02-22T16:07:09.913Z,18.27
2019-02-22T16:09:39.390Z,24.63
2019-02-22T16:12:08.977Z,25.10
2019-02-22T16:14:38.457Z,22.50
2019-02-22T16:17:07.979Z,19.10
2019-02-22T16:19:37.481Z,25.63
2019-02-22T16:22:06.998Z,23.40
2019-02-22T16:24:36.477Z,24.57
2019-02-22T16:27:05.992Z,25.53
2019-02-22T16:29:35.479Z,27.00
2019-02-22T16:32:09.480Z,21.60
2019-02-22T16:34:43.417Z,23.63
2019-02-22T16:37:10.233Z,17.90
2019-02-22T16:39:39.721Z,20.67
2019-02-22T16:42:09.222Z,12.90
2019-02-22T16:44:38.821Z,15.63
2019-02-22T16:47:08.319Z,15.63
2019-02-22T16:49:37.871Z,15.27
2019-02-22T16:52:07.357Z,14.00
2019-02-22T16:54:36.859Z,14.97
2019-02-22T16:57:06.382Z,16.80
2019-02-22T16:59:35.915Z,14.83
2019-02-22T17:02:05.416Z,12.20
2019-02-22T17:04:34.896Z,11.97
2019-02-22T17:07:04.464Z,14.73
2019-02-22T17:09:33.946Z,10.93
2019-02-22T17:12:06.380Z,7.53
2019-02-22T17:14:34.774Z,5.03
2019-02-22T17:17:04.329Z,7.77
2019-02-22T17:19:33.823Z,9.83
2019-02-22T17:22:03.317Z,11.23
2019-02-22T17:24:32.825Z,8.27
2019-02-22T17:27:02.331Z,9.50
2019-02-22T17:29:31.805Z,12.10
2019-02-22T17:32:01.310Z,12.77
2019-02-22T17:34:30.786Z,12.90
2019-02-22T17:37:00.279Z,17.70
2019-02-22T17:39:29.801Z,16.80
2019-02-22T17:41:59.315Z,12.30
2019-02-22T17:44:28.811Z,13.37
2019-02-22T17:46:58.293Z,12.17
2019-02-22T17:49:27.807Z,16.67
2019-02-22T17:51:57.315Z,14.70
2019-02-22T17:54:26.922Z,13.77
2019-02-22T17:56:56.395Z,17.10
2019-02-22T17:59:25.930Z,17.33
2019-02-22T18:01:55.428Z,16.67
2019-02-22T18:04:24.945Z,20.53
2019-02-22T18:06:54.422Z,14.80
2019-02-22T18:09:23.958Z,15.27
2019-02-22T18:11:53.482Z,16.83
2019-02-22T18:14:22.964Z,15.13
2019-02-22T18:16:52.442Z,15.60
2019-02-22T18:19:21.925Z,15.13
2019-02-22T18:21:51.452Z,14.13
2019-02-22T18:24:20.957Z,13.67
2019-02-22T18:26:50.542Z,15.07
2019-02-22T18:29:20.097Z,15.20
2019-02-22T18:31:49.585Z,15.60
2019-02-22T18:34:19.094Z,18.43
2019-02-22T18:36:48.568Z,16.07
2019-02-22T18:39:18.075Z,16.80
2019-02-22T18:41:47.565Z,15.83
2019-02-22T18:44:17.283Z,16.47
2019-02-22T18:46:46.770Z,18.00
2019-02-22T18:49:16.266Z,17.43
2019-02-22T18:51:45.804Z,18.83
2019-02-22T18:54:15.394Z,17.10
2019-02-22T18:56:44.983Z,15.57
2019-02-22T18:59:14.625Z,17.23
2019-02-22T19:01:44.162Z,16.43
2019-02-22T19:04:13.669Z,13.63
2019-02-22T19:06:43.256Z,13.67
2019-02-22T19:09:12.758Z,15.27
2019-02-22T19:11:42.345Z,13.97
2019-02-22T19:14:11.889Z,16.17
2019-02-22T19:16:41.385Z,14.17
2019-02-22T19:19:10.918Z,15.93
2019-02-22T19:21:42.211Z,18.93
2019-02-22T19:24:11.760Z,20.03
2019-02-22T19:26:41.292Z,20.13
2019-02-22T19:29:10.815Z,22.60
2019-02-22T19:31:40.319Z,21.87
2019-02-22T19:34:09.825Z,23.10
2019-02-22T19:36:39.413Z,24.50
2019-02-22T19:39:08.846Z,25.00
2019-02-22T19:41:38.323Z,24.43
2019-02-22T19:44:07.770Z,25.07
2019-02-22T19:46:37.269Z,24.77
2019-02-22T19:49:06.808Z,21.37
2019-02-22T19:51:36.344Z,21.83
2019-02-22T19:54:05.894Z,20.63
2019-02-22T19:56:35.398Z,18.47
2019-02-22T19:59:04.930Z,20.33
2019-02-22T20:01:34.514Z,17.13
2019-02-22T20:04:04.389Z,18.57
2019-02-22T20:06:33.907Z,17.50
2019-02-22T20:09:04.822Z,19.23
2019-02-22T20:11:34.319Z,17.50
2019-02-22T20:14:03.927Z,15.87
2019-02-22T20:16:33.459Z,16.50
2019-02-22T20:19:02.962Z,19.43
2019-02-22T20:21:32.493Z,16.50
2019-02-22T20:24:01.959Z,16.43
2019-02-22T20:26:31.481Z,16.33
2019-02-22T20:29:00.980Z,15.10
2019-02-22T20:31:30.671Z,15.10
2019-02-22T20:34:00.189Z,14.67
2019-02-22T20:36:29.710Z,13.77
2019-02-22T20:38:59.183Z,13.47
2019-02-22T20:41:28.669Z,12.13
2019-02-22T20:43:58.153Z,14.77
2019-02-22T20:46:28.205Z,14.80
2019-02-22T20:49:00.733Z,14.67
2019-02-22T20:51:28.965Z,13.80
2019-02-22T20:53:58.498Z,11.60
2019-02-22T20:56:28.005Z,12.43
2019-02-22T20:58:57.504Z,10.63
2019-02-22T21:01:26.989Z,10.90
2019-02-22T21:03:56.485Z,10.83
2019-02-22T21:06:25.993Z,12.63
2019-02-22T21:08:55.526Z,11.87
2019-02-22T21:11:25.087Z,9.63
2019-02-22T21:13:54.589Z,10.50
2019-02-22T21:16:24.079Z,9.70
2019-02-22T21:18:53.589Z,12.80
2019-02-22T21:21:23.075Z,10.77
2019-02-22T21:23:52.599Z,12.03
2019-02-22T21:26:22.100Z,10.33
2019-02-22T21:28:51.563Z,11.63
2019-02-22T21:31:21.142Z,12.60
2019-02-22T21:33:50.699Z,11.47
2019-02-22T21:36:20.209Z,14.77
2019-02-22T21:38:49.730Z,13.80
2019-02-22T21:41:19.262Z,15.57
2019-02-22T21:43:48.749Z,15.47
2019-02-22T21:46:18.229Z,13.97
2019-02-22T21:48:47.763Z,11.30
2019-02-22T21:51:17.285Z,13.17
2019-02-22T21:53:47.109Z,16.03
2019-02-22T21:56:16.713Z,11.13
2019-02-22T21:58:48.717Z,8.97
2019-02-22T22:01:17.489Z,9.83
2019-02-22T22:03:46.973Z,9.80
2019-02-22T22:06:16.461Z,10.10
2019-02-22T22:08:45.944Z,10.67
2019-02-22T22:11:15.429Z,10.87
2019-02-22T22:13:44.894Z,11.23
2019-02-22T22:16:14.373Z,8.80
2019-02-22T22:18:43.860Z,11.17
2019-02-22T22:21:13.320Z,9.60
2019-02-22T22:23:42.815Z,8.60
2019-02-22T22:26:12.284Z,11.37
2019-02-22T22:28:41.732Z,8.80
2019-02-22T22:31:11.201Z,12.80
2019-02-22T22:33:40.687Z,16.43
2019-02-22T22:36:10.201Z,18.47
2019-02-22T22:38:39.674Z,7.87
2019-02-22T22:41:09.202Z,6.83
2019-02-22T22:43:38.675Z,1.90
2019-02-22T22:46:08.177Z,2.57
2019-02-22T22:48:37.677Z,2.53
2019-02-22T22:51:07.185Z,1.93
2019-02-22T22:53:36.677Z,1.50
2019-02-22T22:56:06.181Z,1.97
2019-02-22T22:58:35.648Z,1.63
2019-02-22T23:01:14.913Z,1.50
2019-02-22T23:03:44.374Z,1.37
2019-02-22T23:06:14.967Z,2.10
2019-02-22T23:08:44.473Z,1.80
2019-02-22T23:11:13.966Z,2.07
2019-02-22T23:13:43.440Z,1.80
2019-02-22T23:16:12.909Z,2.00
2019-02-22T23:18:42.403Z,2.50
2019-02-22T23:21:11.917Z,1.77
2019-02-22T23:23:41.408Z,2.00
2019-02-22T23:26:10.865Z,3.17
2019-02-22T23:28:40.369Z,4.60
2019-02-22T23:31:09.837Z,4.53
2019-02-22T23:33:39.327Z,3.23
2019-02-22T23:36:08.797Z,1.00
2019-02-22T23:38:38.286Z,1.10
2019-02-22T23:41:07.792Z,1.07
2019-02-22T23:43:37.293Z,1.10
2019-02-22T23:46:06.801Z,1.20
2019-02-22T23:48:36.342Z,1.37
2019-02-22T23:51:05.837Z,1.30
2019-02-22T23:53:35.306Z,1.27
2019-02-22T23:56:04.791Z,0.87
2019-02-22T23:58:34.265Z,1.33
